createdAt,value
2019-04-26T14:38:01.429Z,10.15
2019-04-26T14:40:30.605Z,9.08
2019-04-26T14:43:06.386Z,8.93
2019-04-26T14:45:27.880Z,8.03
2019-04-26T14:47:55.874Z,7.33
2019-04-26T14:50:23.584Z,7.83
2019-04-26T14:52:52.423Z,7.33
2019-04-26T14:55:21.234Z,7.08
2019-04-26T14:57:54.552Z,7.08
2019-04-26T15:00:25.200Z,7.15
2019-04-26T15:02:56.235Z,6.25
2019-04-26T15:07:53.805Z,6.30
2019-04-26T15:10:21.555Z,6.00
2019-04-26T15:12:58.376Z,6.00
2019-04-26T15:15:20.773Z,6.58
2019-04-26T15:17:53.622Z,5.53
2019-04-26T15:22:50.087Z,5.65
2019-04-26T15:25:18.423Z,5.35
2019-04-26T15:27:47.621Z,5.83
2019-04-26T15:30:15.281Z,6.75
2019-04-26T15:32:42.912Z,6.37
2019-04-26T15:35:15.529Z,6.60
2019-04-26T15:37:42.267Z,7.28
2019-04-26T15:40:13.128Z,7.20
2019-04-26T15:45:39.848Z,6.20
2019-04-26T15:48:10.048Z,6.53
2019-04-26T15:50:40.914Z,6.85
2019-04-26T15:53:11.223Z,6.47
2019-04-26T15:55:41.432Z,5.35
2019-04-26T16:09:02.322Z,5.78
2019-04-26T16:11:32.834Z,5.20
2019-04-26T16:14:02.514Z,5.08
2019-04-26T16:16:34.563Z,5.80
2019-04-26T16:19:03.065Z,5.80
2019-04-26T16:21:32.491Z,5.03
2019-04-26T16:24:02.805Z,5.30
2019-04-26T16:26:33.201Z,5.58
2019-04-26T16:29:03.689Z,5.67
2019-04-26T16:31:34.321Z,5.87
2019-04-26T16:36:36.713Z,6.10
2019-04-26T16:39:06.323Z,6.03
2019-04-26T16:41:38.228Z,5.93
2019-04-26T16:44:07.913Z,5.63
2019-04-26T16:46:39.072Z,5.35
2019-04-26T16:49:14.077Z,6.12
2019-04-26T16:51:46.088Z,5.40
2019-04-26T16:54:20.878Z,6.45
2019-04-26T16:59:29.918Z,6.75
2019-04-26T17:02:02.781Z,7.10
2019-04-26T17:04:40.848Z,6.70
2019-04-26T17:09:41.879Z,7.95
2019-04-26T17:09:51.030Z,5.83
2019-04-26T17:09:59.048Z,7.58
2019-04-26T17:12:29.066Z,7.25
2019-04-26T17:14:59.537Z,6.42
2019-04-26T17:20:00.168Z,7.37
2019-04-26T17:22:42.575Z,7.65
2019-04-26T17:25:05.686Z,7.33
2019-04-26T17:27:34.731Z,7.50
2019-04-26T17:30:04.359Z,7.83
2019-04-26T17:32:35.692Z,7.70
2019-04-26T17:35:07.480Z,7.33
2019-04-26T17:37:37.268Z,6.95
2019-04-26T17:40:06.991Z,7.35
2019-04-26T17:42:44.845Z,7.47
2019-04-26T17:45:16.839Z,6.87
2019-04-26T17:47:46.738Z,7.58
2019-04-26T17:50:20.502Z,6.87
2019-04-26T17:52:48.321Z,7.28
2019-04-26T17:55:18.347Z,6.42
2019-04-26T17:57:48.697Z,7.07
2019-04-26T18:00:45.357Z,6.47
2019-04-26T18:02:54.456Z,6.80
2019-04-26T18:05:45.061Z,7.12
2019-04-26T18:08:10.848Z,7.00
2019-04-26T18:10:30.652Z,6.72
2019-04-26T18:13:02.187Z,6.95
2019-04-26T18:15:35.590Z,6.70
2019-04-26T18:18:05.107Z,7.25
2019-04-26T18:20:37.492Z,6.35
2019-04-26T18:23:05.634Z,6.65
2019-04-26T18:25:36.365Z,7.33
2019-04-26T18:28:13.251Z,7.00
2019-04-26T18:30:47.629Z,7.40
2019-04-26T18:33:17.545Z,6.60
2019-04-26T18:38:18.045Z,6.92
2019-04-26T18:41:00.151Z,7.67
2019-04-26T18:43:23.883Z,7.10
2019-04-26T18:45:51.186Z,7.35
2019-04-26T18:48:23.500Z,7.62
2019-04-26T18:50:52.651Z,6.97
2019-04-26T18:53:23.373Z,7.50
2019-04-26T18:55:53.536Z,7.58
2019-04-26T18:58:23.572Z,7.28
2019-04-26T19:00:53.131Z,7.47
2019-04-26T19:03:24.715Z,6.87
2019-04-26T19:05:54.190Z,7.05
2019-04-26T19:08:27.307Z,7.60
2019-04-26T19:11:00.772Z,7.40
2019-04-26T19:13:25.374Z,7.40
2019-04-26T19:15:55.705Z,6.62
2019-04-26T19:18:26.131Z,7.87
2019-04-26T19:23:29.095Z,6.95
2019-04-26T19:25:55.459Z,6.50
2019-04-26T19:28:26.311Z,6.87
2019-04-26T19:30:55.905Z,6.62
2019-04-26T19:33:24.997Z,6.40
2019-04-26T19:35:54.564Z,6.67
2019-04-26T19:38:23.656Z,7.28
2019-04-26T19:40:53.006Z,6.83
2019-04-26T19:43:31.099Z,7.35
2019-04-26T19:45:53.960Z,6.55
2019-04-26T19:48:26.106Z,6.50
2019-04-26T19:50:54.316Z,6.33
2019-04-26T19:53:25.162Z,5.80
2019-04-26T19:55:54.995Z,6.90
2019-04-26T19:58:24.674Z,6.15
2019-04-26T20:00:53.974Z,6.25
2019-04-26T20:03:24.508Z,6.62
2019-04-26T20:05:57.294Z,5.58
2019-04-26T20:08:29.343Z,6.10
2019-04-26T20:10:57.633Z,5.60
2019-04-26T20:13:28.058Z,5.62
2019-04-26T20:16:02.605Z,5.58
2019-04-26T20:18:32.722Z,5.30
2019-04-26T20:23:31.730Z,6.05
2019-04-26T20:26:06.915Z,5.28
2019-04-26T20:28:35.872Z,5.00
2019-04-26T20:33:35.073Z,4.78
2019-04-26T20:36:05.415Z,4.58
2019-04-26T20:38:43.711Z,4.85
2019-04-26T20:41:09.422Z,4.78
2019-04-26T20:43:45.589Z,5.17
2019-04-26T20:46:14.771Z,4.03
2019-04-26T20:48:42.469Z,5.08
2019-04-26T20:51:12.087Z,4.97
2019-04-26T20:53:43.647Z,4.60
2019-04-26T20:56:18.154Z,4.40
2019-04-26T20:58:46.862Z,4.30
2019-04-26T21:03:45.915Z,4.62
2019-04-26T21:06:15.539Z,3.92
2019-04-26T21:08:54.038Z,4.10
2019-04-26T21:11:24.399Z,4.42
2019-04-26T21:13:53.789Z,3.98
2019-04-26T21:16:22.905Z,3.95
2019-04-26T21:18:52.561Z,3.87
2019-04-26T21:21:22.029Z,3.87
2019-04-26T21:23:51.939Z,3.70
2019-04-26T21:26:21.720Z,3.87
2019-04-26T21:28:51.959Z,3.60
2019-04-26T21:31:21.850Z,3.30
2019-04-26T21:33:51.281Z,4.12
2019-04-26T21:36:22.817Z,3.42
2019-04-26T21:38:52.944Z,3.50
2019-04-26T21:41:23.584Z,3.90
2019-04-26T21:43:53.373Z,3.30
2019-04-26T21:46:22.949Z,3.72
2019-04-26T21:48:53.374Z,3.67
2019-04-26T21:51:23.040Z,3.55
2019-04-26T21:53:53.188Z,3.62
2019-04-26T21:56:23.553Z,3.25
2019-04-26T21:58:55.352Z,3.50
2019-04-26T22:01:25.473Z,3.45
2019-04-26T22:03:58.289Z,3.17
2019-04-26T22:06:28.645Z,3.35
2019-04-26T22:08:59.422Z,3.50
2019-04-26T22:11:30.084Z,3.60
2019-04-26T22:13:59.159Z,3.17
2019-04-26T22:16:34.451Z,3.00
2019-04-26T22:18:59.796Z,3.00
2019-04-26T22:21:30.064Z,3.17
2019-04-26T22:24:00.261Z,3.08
2019-04-26T22:29:00.283Z,3.15
2019-04-26T22:31:37.876Z,3.40
2019-04-26T22:34:08.528Z,3.42
2019-04-26T22:36:36.987Z,3.60
2019-04-26T22:39:06.503Z,2.98
2019-04-26T22:44:06.642Z,2.85
2019-04-26T22:46:47.294Z,3.47
2019-04-26T22:49:09.859Z,3.52
2019-04-26T22:51:40.551Z,3.40
2019-04-26T22:54:09.834Z,2.62
2019-04-26T22:56:38.779Z,3.35
2019-04-26T22:59:08.254Z,3.05
2019-04-26T23:01:39.090Z,3.27
2019-04-26T23:04:08.596Z,3.12
2019-04-26T23:06:38.234Z,3.20
2019-04-26T23:09:11.635Z,3.00
2019-04-26T23:11:46.664Z,3.12
2019-04-26T23:14:23.510Z,3.52
2019-04-26T23:17:04.104Z,2.98
2019-04-26T23:21:56.154Z,2.98
2019-04-26T23:26:55.184Z,3.00
2019-04-26T23:31:55.525Z,3.45
2019-04-26T23:34:27.486Z,3.55
2019-04-26T23:36:56.694Z,3.65
2019-04-26T23:39:27.114Z,3.30
2019-04-26T23:41:56.725Z,3.37
2019-04-26T23:44:25.725Z,3.30
2019-04-26T23:47:01.297Z,3.20
2019-04-26T23:49:29.037Z,3.47
2019-04-26T23:52:03.712Z,3.00
2019-04-26T23:54:35.883Z,3.20
2019-04-26T23:57:03.703Z,3.20
2019-04-26T23:59:33.796Z,3.58
